createdAt,value
2017-09-01T00:00:14.618Z,74.40
2017-09-01T00:02:42.155Z,75.40
2017-09-01T00:05:09.655Z,74.50
2017-09-01T00:07:37.229Z,75.50
2017-09-01T00:10:04.723Z,77.20
2017-09-01T00:12:32.244Z,76.90
2017-09-01T00:14:59.763Z,77.80
2017-09-01T00:17:27.260Z,78.50
2017-09-01T00:19:55.372Z,79.00
2017-09-01T00:22:22.890Z,80.10
2017-09-01T00:24:50.411Z,78.80
2017-09-01T00:27:18.009Z,79.10
2017-09-01T00:29:46.081Z,79.30
2017-09-01T00:35:06.948Z,79.60
2017-09-01T00:37:35.332Z,79.40
2017-09-01T00:40:02.870Z,79.50
2017-09-01T00:42:30.378Z,79.80
2017-09-01T00:44:57.914Z,79.90
2017-09-01T00:47:25.421Z,80.20
2017-09-01T00:49:52.955Z,80.10
2017-09-01T00:52:20.727Z,80.00
2017-09-01T00:54:48.279Z,79.60
2017-09-01T00:57:15.809Z,78.90
2017-09-01T00:59:43.310Z,78.80
2017-09-01T01:02:10.835Z,79.80
2017-09-01T01:04:38.384Z,79.00
2017-09-01T01:07:05.923Z,79.10
2017-09-01T01:09:33.439Z,79.10
2017-09-01T01:12:00.934Z,79.20
2017-09-01T01:14:28.466Z,79.40
2017-09-01T01:16:56.010Z,79.60
2017-09-01T01:19:23.558Z,80.30
2017-09-01T01:21:51.102Z,81.80
2017-09-01T01:24:18.661Z,81.50
2017-09-01T01:26:46.177Z,81.40
2017-09-01T01:29:13.697Z,81.50
2017-09-01T01:31:41.283Z,80.90
2017-09-01T01:34:09.308Z,80.70
2017-09-01T01:36:36.838Z,81.00
2017-09-01T01:39:04.390Z,80.80
2017-09-01T01:41:31.929Z,81.20
2017-09-01T01:44:00.610Z,81.30
2017-09-01T01:46:28.146Z,81.40
2017-09-01T01:48:56.708Z,81.60
2017-09-01T01:51:24.209Z,81.70
2017-09-01T01:53:51.759Z,81.50
2017-09-01T01:56:19.307Z,81.40
2017-09-01T01:58:46.855Z,81.50
2017-09-01T02:01:14.426Z,81.70
2017-09-01T02:03:41.968Z,81.20
2017-09-01T02:06:09.508Z,81.40
2017-09-01T02:08:37.036Z,81.30
2017-09-01T02:11:04.570Z,81.10
2017-09-01T02:13:32.091Z,80.90
2017-09-01T02:15:59.610Z,81.30
2017-09-01T02:18:27.196Z,81.60
2017-09-01T02:20:54.716Z,82.40
2017-09-01T02:23:22.280Z,82.70
2017-09-01T02:25:49.782Z,82.90
2017-09-01T02:28:17.317Z,83.20
2017-09-01T02:30:45.762Z,83.80
2017-09-01T02:33:13.295Z,84.00
2017-09-01T02:35:40.814Z,84.00
2017-09-01T02:38:08.381Z,84.60
2017-09-01T02:40:35.944Z,84.60
2017-09-01T02:43:03.510Z,84.10
2017-09-01T02:45:31.054Z,84.00
2017-09-01T02:47:58.593Z,84.00
2017-09-01T02:50:26.150Z,83.90
2017-09-01T02:52:53.712Z,83.50
2017-09-01T02:55:21.248Z,83.20
2017-09-01T02:57:48.809Z,82.90
2017-09-01T03:00:16.358Z,83.40
2017-09-01T03:02:43.874Z,82.70
2017-09-01T03:05:12.367Z,83.30
2017-09-01T03:07:40.034Z,83.90
2017-09-01T03:10:08.553Z,84.00
2017-09-01T03:12:37.052Z,84.20
2017-09-01T03:15:04.620Z,84.00
2017-09-01T03:17:32.120Z,83.70
2017-09-01T03:19:59.708Z,84.00
2017-09-01T03:22:27.300Z,83.50
2017-09-01T03:24:54.810Z,83.10
2017-09-01T03:27:22.343Z,82.70
2017-09-01T03:29:49.884Z,82.80
2017-09-01T03:32:17.423Z,82.60
2017-09-01T03:34:45.596Z,82.00
2017-09-01T03:37:13.141Z,82.10
2017-09-01T03:39:40.722Z,82.50
2017-09-01T03:42:08.238Z,82.20
2017-09-01T03:44:35.813Z,81.90
2017-09-01T03:47:03.350Z,81.90
2017-09-01T03:49:30.894Z,81.80
2017-09-01T03:51:58.427Z,81.60
2017-09-01T03:54:25.996Z,81.50
2017-09-01T03:56:53.561Z,81.10
2017-09-01T03:59:21.094Z,81.20
2017-09-01T04:01:48.640Z,81.10
2017-09-01T04:04:16.178Z,81.40
2017-09-01T04:06:43.688Z,81.60
2017-09-01T04:09:12.086Z,81.70
2017-09-01T04:11:39.619Z,81.70
2017-09-01T04:14:07.183Z,81.10
2017-09-01T04:16:35.508Z,81.70
2017-09-01T04:19:03.049Z,81.80
2017-09-01T04:21:31.307Z,82.00
2017-09-01T04:23:58.852Z,82.00
2017-09-01T04:26:26.411Z,82.50
2017-09-01T04:28:53.919Z,81.60
2017-09-01T04:31:21.430Z,81.70
2017-09-01T04:33:48.946Z,82.20
2017-09-01T04:36:16.468Z,82.60
2017-09-01T04:38:43.988Z,82.60
2017-09-01T04:41:11.515Z,82.50
2017-09-01T04:43:39.051Z,82.70
2017-09-01T04:46:06.576Z,82.60
2017-09-01T04:48:34.095Z,82.60
2017-09-01T04:51:01.600Z,82.60
2017-09-01T04:53:29.117Z,82.70
2017-09-01T04:55:56.679Z,82.70
2017-09-01T04:58:24.188Z,82.90
2017-09-01T05:00:51.728Z,82.90
2017-09-01T05:03:19.260Z,83.10
2017-09-01T05:05:46.761Z,83.00
2017-09-01T05:08:14.319Z,83.30
2017-09-01T05:10:41.825Z,82.50
2017-09-01T05:13:09.331Z,81.60
2017-09-01T05:15:37.351Z,82.60
2017-09-01T05:18:04.877Z,83.00
2017-09-01T05:20:33.089Z,83.70
2017-09-01T05:23:00.643Z,83.30
2017-09-01T05:25:28.147Z,83.40
2017-09-01T05:27:55.667Z,82.70
2017-09-01T05:30:23.168Z,82.80
2017-09-01T05:32:52.789Z,83.10
2017-09-01T05:35:20.312Z,83.20
2017-09-01T05:37:47.837Z,83.20
2017-09-01T05:40:15.362Z,83.00
2017-09-01T05:42:42.895Z,82.80
2017-09-01T05:45:10.420Z,82.40
2017-09-01T05:47:37.968Z,82.00
2017-09-01T05:50:05.509Z,81.50
2017-09-01T05:52:33.050Z,81.80
2017-09-01T05:55:00.657Z,81.60
2017-09-01T05:57:28.187Z,82.20
2017-09-01T05:59:55.696Z,81.80
2017-09-01T06:02:23.241Z,82.30
2017-09-01T06:04:50.787Z,82.70
2017-09-01T06:07:18.326Z,82.80
2017-09-01T06:09:46.180Z,83.00
2017-09-01T06:12:13.737Z,82.70
2017-09-01T06:14:41.355Z,83.20
2017-09-01T06:17:08.957Z,82.80
2017-09-01T06:19:36.523Z,83.00
2017-09-01T06:22:04.113Z,83.80
2017-09-01T06:24:31.647Z,82.90
2017-09-01T06:26:59.868Z,83.00
2017-09-01T06:29:27.414Z,83.20
2017-09-01T06:31:54.934Z,83.10
2017-09-01T06:34:22.468Z,83.20
2017-09-01T06:36:49.992Z,83.00
2017-09-01T06:39:17.521Z,83.10
2017-09-01T06:41:45.039Z,83.20
2017-09-01T06:44:12.587Z,83.10
2017-09-01T06:46:40.163Z,82.90
2017-09-01T06:49:07.842Z,82.70
2017-09-01T06:51:35.400Z,82.90
2017-09-01T06:54:02.945Z,82.70
2017-09-01T06:56:30.672Z,81.90
2017-09-01T06:58:58.212Z,81.70
2017-09-01T07:01:25.726Z,81.30
2017-09-01T07:03:53.293Z,81.60
2017-09-01T07:06:21.439Z,80.90
2017-09-01T07:08:48.937Z,80.70
2017-09-01T07:11:16.490Z,80.70
2017-09-01T07:13:44.049Z,79.60
2017-09-01T07:16:11.586Z,79.80
2017-09-01T07:18:39.118Z,79.10
2017-09-01T07:21:06.615Z,79.50
2017-09-01T07:23:34.164Z,78.30
2017-09-01T07:26:02.502Z,77.60
2017-09-01T07:28:30.071Z,75.30
2017-09-01T07:30:59.499Z,74.60
2017-09-01T07:33:27.035Z,73.90
2017-09-01T07:35:54.567Z,73.60
2017-09-01T07:38:22.101Z,73.70
2017-09-01T07:40:49.614Z,74.00
2017-09-01T07:43:17.162Z,72.90
2017-09-01T07:45:44.650Z,72.60
2017-09-01T07:48:12.171Z,71.80
2017-09-01T07:50:39.785Z,71.60
2017-09-01T07:53:07.318Z,71.40
2017-09-01T07:55:34.896Z,71.30
2017-09-01T07:58:02.409Z,71.40
2017-09-01T08:00:29.951Z,70.40
2017-09-01T08:02:57.458Z,70.50
2017-09-01T08:05:25.577Z,70.40
2017-09-01T08:07:53.115Z,70.00
2017-09-01T08:10:20.645Z,69.90
2017-09-01T08:12:48.205Z,69.30
2017-09-01T08:15:15.726Z,70.20
2017-09-01T08:17:43.271Z,70.50
2017-09-01T08:20:10.775Z,70.60
2017-09-01T08:22:38.315Z,68.70
2017-09-01T08:25:05.869Z,69.40
2017-09-01T08:27:33.395Z,68.40
2017-09-01T08:30:00.955Z,69.10
2017-09-01T08:32:28.473Z,69.10
2017-09-01T08:34:56.032Z,69.20
2017-09-01T08:37:23.584Z,67.50
2017-09-01T08:39:51.470Z,66.10
2017-09-01T08:42:19.311Z,69.20
2017-09-01T08:44:46.856Z,66.90
2017-09-01T08:47:14.374Z,67.20
2017-09-01T08:49:47.546Z,67.20
2017-09-01T08:52:15.068Z,67.50
2017-09-01T08:54:42.597Z,65.80
2017-09-01T08:57:10.111Z,64.50
2017-09-01T08:59:37.611Z,64.80
2017-09-01T09:02:05.158Z,63.70
2017-09-01T09:04:32.693Z,64.00
2017-09-01T09:07:00.210Z,66.20
2017-09-01T09:09:27.778Z,67.50
2017-09-01T09:11:55.378Z,66.30
2017-09-01T09:14:22.930Z,66.80
2017-09-01T09:16:50.528Z,66.60
2017-09-01T09:19:18.119Z,67.10
2017-09-01T09:21:45.717Z,68.70
2017-09-01T09:24:13.299Z,68.60
2017-09-01T09:26:40.858Z,67.70
2017-09-01T09:29:08.479Z,67.10
2017-09-01T09:31:36.093Z,66.00
2017-09-01T09:34:03.662Z,66.60
2017-09-01T09:36:31.299Z,66.20
2017-09-01T09:38:58.940Z,66.70
2017-09-01T09:41:26.520Z,66.70
2017-09-01T09:43:54.202Z,66.50
2017-09-01T09:46:21.777Z,66.80
2017-09-01T09:48:49.374Z,66.40
2017-09-01T09:51:16.977Z,63.80
2017-09-01T09:53:44.611Z,63.60
2017-09-01T09:56:12.202Z,64.80
2017-09-01T09:58:39.793Z,65.40
2017-09-01T10:01:07.429Z,65.00
2017-09-01T10:03:35.031Z,65.50
2017-09-01T10:06:02.622Z,64.30
2017-09-01T10:08:30.238Z,64.50
2017-09-01T10:10:57.837Z,62.90
2017-09-01T10:13:25.625Z,63.10
2017-09-01T10:15:53.256Z,64.30
2017-09-01T10:18:20.870Z,64.40
2017-09-01T10:20:48.466Z,65.00
2017-09-01T10:23:16.157Z,63.90
2017-09-01T10:25:43.760Z,62.80
2017-09-01T10:28:11.390Z,61.00
2017-09-01T10:30:38.988Z,60.30
2017-09-01T10:33:08.169Z,61.10
2017-09-01T10:35:36.738Z,59.10
2017-09-01T10:38:04.326Z,59.50
2017-09-01T10:40:31.909Z,60.40
2017-09-01T10:42:59.515Z,58.60
2017-09-01T10:45:28.023Z,57.60
2017-09-01T10:48:07.403Z,58.60
2017-09-01T10:50:46.745Z,59.10
2017-09-01T10:53:26.262Z,61.30
2017-09-01T10:56:05.639Z,55.50
2017-09-01T10:58:33.273Z,54.20
2017-09-01T11:01:00.839Z,54.30
2017-09-01T11:03:29.427Z,52.90
2017-09-01T11:05:57.022Z,51.30
2017-09-01T11:08:24.615Z,52.00
2017-09-01T11:10:52.174Z,47.80
2017-09-01T11:13:19.735Z,47.60
2017-09-01T11:15:47.326Z,47.60
2017-09-01T11:18:14.919Z,45.40
2017-09-01T11:20:48.057Z,43.40
2017-09-01T11:23:22.467Z,42.80
2017-09-01T11:25:50.056Z,43.90
2017-09-01T11:28:17.668Z,44.50
2017-09-01T11:30:45.270Z,43.00
2017-09-01T11:33:12.876Z,41.90
2017-09-01T11:35:40.460Z,42.90
2017-09-01T11:38:08.071Z,41.30
2017-09-01T11:40:35.651Z,39.20
2017-09-01T11:43:05.155Z,40.10
2017-09-01T11:45:32.798Z,38.20
2017-09-01T11:48:00.414Z,39.80
2017-09-01T11:50:28.011Z,40.00
2017-09-01T11:52:55.736Z,39.90
2017-09-01T11:55:23.317Z,40.50
2017-09-01T11:57:50.878Z,41.00
2017-09-01T12:00:18.911Z,44.60
2017-09-01T12:02:46.513Z,46.10
2017-09-01T12:05:14.109Z,44.60
2017-09-01T12:07:42.829Z,44.20
2017-09-01T12:10:10.452Z,41.90
2017-09-01T12:12:38.069Z,41.90
2017-09-01T12:15:05.675Z,43.50
2017-09-01T12:17:33.281Z,39.70
2017-09-01T12:20:00.874Z,40.60
2017-09-01T12:22:28.506Z,37.40
2017-09-01T12:24:56.127Z,37.80
2017-09-01T12:27:23.732Z,37.20
2017-09-01T12:29:51.327Z,35.60
2017-09-01T12:32:18.914Z,39.30
2017-09-01T12:34:46.505Z,38.30
2017-09-01T12:37:14.086Z,36.90
2017-09-01T12:39:41.704Z,38.80
2017-09-01T12:42:09.311Z,38.00
2017-09-01T12:44:36.941Z,38.00
2017-09-01T12:47:04.522Z,39.30
2017-09-01T12:49:32.346Z,40.40
2017-09-01T12:51:59.943Z,35.10
2017-09-01T12:54:27.518Z,37.00
2017-09-01T12:56:55.098Z,38.30
2017-09-01T12:59:22.697Z,35.70
2017-09-01T13:01:50.319Z,35.80
2017-09-01T13:04:17.903Z,35.00
2017-09-01T13:06:45.484Z,37.60
2017-09-01T13:09:13.072Z,39.60
2017-09-01T13:11:40.669Z,36.80
2017-09-01T13:14:08.223Z,38.90
2017-09-01T13:16:35.799Z,40.90
2017-09-01T13:19:03.435Z,41.00
2017-09-01T13:21:31.004Z,41.00
2017-09-01T13:23:58.581Z,40.00
2017-09-01T13:26:26.157Z,39.40
2017-09-01T13:28:53.744Z,39.90
2017-09-01T13:31:21.320Z,39.80
2017-09-01T13:33:48.882Z,40.00
2017-09-01T13:36:16.461Z,39.00
2017-09-01T13:38:44.069Z,40.20
2017-09-01T13:41:11.683Z,37.20
2017-09-01T13:43:39.350Z,39.60
2017-09-01T13:46:07.967Z,37.00
2017-09-01T13:48:35.595Z,37.40
2017-09-01T13:51:03.181Z,39.70
2017-09-01T13:53:30.785Z,40.10
2017-09-01T13:55:58.433Z,39.20
2017-09-01T13:58:26.044Z,39.80
2017-09-01T14:00:53.655Z,40.80
2017-09-01T14:03:21.249Z,41.80
2017-09-01T14:05:48.849Z,43.70
2017-09-01T14:08:16.439Z,42.70
2017-09-01T14:10:46.218Z,41.60
2017-09-01T14:13:13.826Z,43.00
2017-09-01T14:15:42.087Z,40.60
2017-09-01T14:18:09.719Z,42.70
2017-09-01T14:20:37.481Z,40.60
2017-09-01T14:23:06.460Z,42.10
2017-09-01T14:25:35.075Z,41.00
2017-09-01T14:28:02.662Z,39.10
2017-09-01T14:30:30.274Z,39.70
2017-09-01T14:32:57.876Z,39.90
2017-09-01T14:35:25.454Z,37.80
2017-09-01T14:37:53.455Z,40.30
2017-09-01T14:40:21.030Z,38.30
2017-09-01T14:42:48.622Z,39.10
2017-09-01T14:45:16.249Z,38.50
2017-09-01T14:47:43.823Z,39.70
2017-09-01T14:50:11.382Z,39.90
2017-09-01T14:52:38.982Z,39.20
2017-09-01T14:55:06.633Z,40.40
2017-09-01T14:57:35.263Z,40.20
2017-09-01T15:00:02.927Z,40.10
2017-09-01T15:02:30.822Z,41.40
2017-09-01T15:05:00.092Z,42.40
2017-09-01T15:07:28.088Z,43.20
2017-09-01T15:09:56.044Z,43.30
2017-09-01T15:12:24.999Z,43.90
2017-09-01T15:14:52.875Z,44.30
2017-09-01T15:17:20.890Z,43.80
2017-09-01T15:19:48.759Z,42.90
2017-09-01T15:22:16.744Z,43.90
2017-09-01T15:24:44.401Z,43.80
2017-09-01T15:27:11.985Z,44.90
2017-09-01T15:29:39.571Z,44.40
2017-09-01T15:32:07.153Z,44.40
2017-09-01T15:34:34.785Z,42.60
2017-09-01T15:37:07.120Z,43.10
2017-09-01T15:39:34.733Z,43.40
2017-09-01T15:42:02.295Z,41.70
2017-09-01T15:44:29.934Z,42.40
2017-09-01T15:46:57.549Z,43.90
2017-09-01T15:49:25.112Z,45.40
2017-09-01T15:51:52.738Z,44.90
2017-09-01T15:54:20.358Z,45.70
2017-09-01T15:56:47.938Z,46.70
2017-09-01T15:59:15.496Z,47.40
2017-09-01T16:01:43.070Z,47.40
2017-09-01T16:04:10.805Z,47.40
2017-09-01T16:06:38.373Z,46.70
2017-09-01T16:09:05.985Z,47.60
2017-09-01T16:11:33.572Z,47.80
2017-09-01T16:14:01.163Z,48.60
2017-09-01T16:16:28.762Z,48.30
2017-09-01T16:18:56.356Z,48.80
2017-09-01T16:21:23.986Z,48.90
2017-09-01T16:23:51.627Z,49.40
2017-09-01T16:26:19.215Z,50.40
2017-09-01T16:28:47.675Z,50.80
2017-09-01T16:31:15.813Z,50.60
2017-09-01T16:33:43.409Z,50.60
2017-09-01T16:36:10.999Z,50.20
2017-09-01T16:38:38.631Z,49.30
2017-09-01T16:41:06.232Z,50.00
2017-09-01T16:43:33.788Z,50.30
2017-09-01T16:46:01.374Z,50.50
2017-09-01T16:48:29.004Z,51.10
2017-09-01T16:50:56.590Z,50.50
2017-09-01T16:53:24.169Z,50.20
2017-09-01T16:55:53.725Z,51.00
2017-09-01T16:58:21.351Z,50.00
2017-09-01T17:00:49.879Z,50.10
2017-09-01T17:03:17.492Z,50.20
2017-09-01T17:05:45.097Z,51.20
2017-09-01T17:08:12.698Z,51.80
2017-09-01T17:10:40.295Z,51.60
2017-09-01T17:13:07.862Z,51.50
2017-09-01T17:15:35.470Z,51.80
2017-09-01T17:18:03.053Z,51.50
2017-09-01T17:20:30.628Z,52.00
2017-09-01T17:22:58.245Z,52.90
2017-09-01T17:25:25.844Z,52.40
2017-09-01T17:27:53.457Z,52.70
2017-09-01T17:30:21.018Z,53.70
2017-09-01T17:32:48.630Z,53.50
2017-09-01T17:35:16.234Z,53.80
2017-09-01T17:37:43.802Z,54.00
2017-09-01T17:40:11.620Z,54.80
2017-09-01T17:42:39.223Z,55.00
2017-09-01T17:45:06.807Z,54.90
2017-09-01T17:47:34.400Z,55.00
2017-09-01T17:50:01.962Z,56.00
2017-09-01T17:52:29.538Z,58.00
2017-09-01T17:54:57.110Z,55.30
2017-09-01T17:57:24.728Z,55.30
2017-09-01T17:59:52.299Z,56.10
2017-09-01T18:02:19.902Z,56.60
2017-09-01T18:04:48.280Z,57.00
2017-09-01T18:07:15.872Z,57.30
2017-09-01T18:09:43.431Z,57.80
2017-09-01T18:12:11.042Z,58.20
2017-09-01T18:14:38.597Z,58.60
2017-09-01T18:17:06.232Z,58.50
2017-09-01T18:19:34.449Z,59.00
2017-09-01T18:22:02.020Z,59.40
2017-09-01T18:24:29.609Z,59.70
2017-09-01T18:26:57.282Z,59.70
2017-09-01T18:29:24.842Z,59.90
2017-09-01T18:31:52.381Z,60.60
2017-09-01T18:34:20.001Z,60.80
2017-09-01T18:36:47.559Z,61.20
2017-09-01T18:39:15.144Z,61.50
2017-09-01T18:41:42.721Z,62.20
2017-09-01T18:44:10.299Z,62.30
2017-09-01T18:46:37.896Z,62.40
2017-09-01T18:49:05.465Z,62.60
2017-09-01T18:51:33.096Z,62.60
2017-09-01T18:54:00.727Z,63.00
2017-09-01T18:56:28.380Z,63.40
2017-09-01T18:58:55.963Z,63.40
2017-09-01T19:01:23.580Z,63.80
2017-09-01T19:03:51.197Z,64.40
2017-09-01T19:06:18.773Z,65.00
2017-09-01T19:08:46.382Z,65.30
2017-09-01T19:11:13.978Z,65.70
2017-09-01T19:13:41.566Z,65.70
2017-09-01T19:16:10.273Z,65.60
2017-09-01T19:18:37.872Z,65.80
2017-09-01T19:21:06.947Z,65.70
2017-09-01T19:23:34.548Z,65.90
2017-09-01T19:26:02.180Z,66.00
2017-09-01T19:28:29.773Z,66.10
2017-09-01T19:30:57.373Z,66.60
2017-09-01T19:33:25.542Z,67.00
2017-09-01T19:35:57.211Z,67.30
2017-09-01T19:38:24.897Z,68.10
2017-09-01T19:40:53.643Z,68.40
2017-09-01T19:43:21.688Z,68.20
2017-09-01T19:45:53.617Z,68.40
2017-09-01T19:48:23.872Z,68.60
2017-09-01T19:50:55.196Z,68.80
2017-09-01T19:53:24.148Z,69.10
2017-09-01T19:55:52.608Z,69.50
2017-09-01T19:58:22.187Z,69.50
2017-09-01T20:00:50.706Z,70.40
2017-09-01T20:03:18.529Z,71.10
2017-09-01T20:05:46.142Z,71.10
2017-09-01T20:08:14.284Z,71.20
2017-09-01T20:10:41.925Z,71.20
2017-09-01T20:13:09.716Z,71.30
2017-09-01T20:15:37.910Z,71.60
2017-09-01T20:18:05.500Z,71.50
2017-09-01T20:20:33.361Z,71.40
2017-09-01T20:23:01.297Z,71.40
2017-09-01T20:25:30.379Z,70.90
2017-09-01T20:27:58.123Z,70.90
2017-09-01T20:30:25.718Z,72.00
2017-09-01T20:32:53.588Z,72.40
2017-09-01T20:35:21.428Z,72.50
2017-09-01T20:37:49.299Z,72.70
2017-09-01T20:40:16.921Z,72.80
2017-09-01T20:42:44.496Z,73.00
2017-09-01T20:45:12.357Z,73.10
2017-09-01T20:47:40.321Z,72.60
2017-09-01T20:50:07.930Z,73.80
2017-09-01T20:52:35.548Z,75.20
2017-09-01T20:55:03.616Z,75.60
2017-09-01T20:57:32.892Z,75.60
2017-09-01T21:00:01.073Z,75.70
2017-09-01T21:02:29.889Z,75.70
2017-09-01T21:04:57.463Z,75.70
2017-09-01T21:07:25.045Z,75.40
2017-09-01T21:15:38.480Z,75.60
2017-09-01T21:18:06.037Z,75.90
2017-09-01T21:20:33.615Z,75.60
2017-09-01T21:23:01.177Z,75.10
2017-09-01T21:25:28.774Z,75.00
2017-09-01T21:27:56.359Z,74.60
2017-09-01T21:30:23.946Z,75.30
2017-09-01T21:32:51.515Z,74.70
2017-09-01T21:35:19.090Z,74.40
2017-09-01T21:37:46.708Z,74.80
2017-09-01T21:40:14.494Z,74.50
2017-09-01T21:42:42.047Z,74.70
2017-09-01T21:45:09.663Z,74.50
2017-09-01T21:47:37.386Z,74.80
2017-09-01T21:50:04.948Z,74.30
2017-09-01T21:52:32.529Z,74.40
2017-09-01T21:55:00.139Z,74.30
2017-09-01T21:57:27.701Z,74.30
2017-09-01T21:59:55.306Z,74.10
2017-09-01T22:02:22.887Z,74.40
2017-09-01T22:04:50.447Z,74.90
2017-09-01T22:07:18.058Z,75.40
2017-09-01T22:09:45.640Z,75.60
2017-09-01T22:12:13.244Z,76.90
2017-09-01T22:14:41.771Z,76.40
2017-09-01T22:17:10.308Z,76.10
2017-09-01T22:19:37.892Z,75.70
2017-09-01T22:22:05.507Z,75.60
2017-09-01T22:24:33.087Z,75.80
2017-09-01T22:27:00.679Z,75.70
2017-09-01T22:29:28.262Z,76.10
2017-09-01T22:31:55.850Z,76.20
2017-09-01T22:34:24.099Z,75.90
2017-09-01T22:36:53.518Z,75.80
2017-09-01T22:39:22.458Z,75.30
2017-09-01T22:41:50.022Z,76.10
2017-09-01T22:44:19.418Z,76.20
2017-09-01T22:46:47.003Z,76.30
2017-09-01T22:49:15.595Z,76.10
2017-09-01T22:51:43.155Z,76.90
2017-09-01T22:54:10.781Z,75.90
2017-09-01T22:56:38.389Z,76.20
2017-09-01T22:59:05.964Z,76.30
2017-09-01T23:01:33.549Z,76.20
2017-09-01T23:04:01.138Z,76.10
2017-09-01T23:06:28.696Z,76.10
2017-09-01T23:08:56.293Z,76.00
2017-09-01T23:11:23.868Z,76.40
2017-09-01T23:13:51.451Z,76.50
2017-09-01T23:16:19.021Z,76.50
2017-09-01T23:18:46.614Z,76.60
2017-09-01T23:21:14.176Z,76.50
2017-09-01T23:23:41.795Z,76.20
2017-09-01T23:26:09.367Z,76.30
2017-09-01T23:28:36.973Z,76.50
2017-09-01T23:31:04.535Z,76.40
2017-09-01T23:33:32.109Z,77.30
2017-09-01T23:35:59.691Z,78.00
2017-09-01T23:38:27.328Z,77.50
2017-09-01T23:40:54.962Z,77.90
2017-09-01T23:43:22.542Z,77.70
2017-09-01T23:45:50.113Z,77.90
2017-09-01T23:48:17.678Z,77.70
2017-09-01T23:50:45.298Z,77.70
2017-09-01T23:53:12.854Z,77.30
2017-09-01T23:55:40.417Z,77.00
2017-09-01T23:58:08.026Z,77.00
